createdAt,value
2023-05-15T00:00:21.625Z,0.0000
2023-05-15T00:01:37.729Z,199.5837
2023-05-15T00:13:15.214Z,0.0000
2023-05-15T00:14:15.927Z,200.8700
2023-05-15T00:15:17.142Z,201.0389
2023-05-15T00:16:19.922Z,201.0421
2023-05-15T00:17:20.364Z,201.4620
2023-05-15T00:18:20.480Z,201.0004
2023-05-15T00:19:22.698Z,0.0000
2023-05-15T00:37:16.094Z,0.0000
2023-05-15T00:38:18.163Z,0.0000
2023-05-15T00:39:18.304Z,0.0000
2023-05-15T00:42:24.802Z,0.0000
2023-05-15T00:43:25.399Z,0.0000
2023-05-15T01:01:49.427Z,0.0000
2023-05-15T01:02:51.611Z,158.8338
2023-05-15T01:03:52.750Z,159.1158
2023-05-15T01:04:54.021Z,158.9235
2023-05-15T01:05:55.233Z,0.0000
2023-05-15T01:06:55.792Z,0.0000
2023-05-15T01:07:56.968Z,205.8277
2023-05-15T01:08:58.066Z,223.9620
2023-05-15T01:09:59.701Z,0.0000
2023-05-15T01:11:02.279Z,0.0000
2023-05-15T01:12:03.135Z,0.0000
2023-05-15T01:13:04.487Z,0.0000
2023-05-15T01:14:06.707Z,0.0000
2023-05-15T01:15:08.876Z,0.0000
2023-05-15T01:16:10.262Z,0.0000
2023-05-15T01:20:16.386Z,0.0000
2023-05-15T01:29:24.980Z,0.0000
2023-05-15T01:30:25.620Z,0.0000
2023-05-15T01:31:26.187Z,0.0000
2023-05-15T01:32:26.717Z,224.2613
2023-05-15T01:33:27.697Z,224.2088
2023-05-15T01:34:29.483Z,0.0000
2023-05-15T01:35:31.365Z,0.0000
2023-05-15T01:36:31.690Z,0.0000
2023-05-15T01:37:33.368Z,0.0000
2023-05-15T01:38:35.420Z,0.0000
2023-05-15T01:39:37.369Z,0.0000
2023-05-15T01:40:38.432Z,0.0000
2023-05-15T01:41:39.270Z,0.0000
2023-05-15T01:42:39.427Z,0.0000
2023-05-15T01:43:39.603Z,0.0000
2023-05-15T01:45:42.136Z,168.1732
2023-05-15T01:46:45.131Z,173.6425
2023-05-15T01:50:49.840Z,0.0000
2023-05-15T01:51:50.725Z,0.0000
2023-05-15T01:52:51.714Z,0.0000
2023-05-15T01:53:54.307Z,0.0000
2023-05-15T01:54:54.085Z,0.0000
2023-05-15T01:55:56.200Z,0.0000
2023-05-15T01:59:01.461Z,0.0000
2023-05-15T02:00:03.132Z,0.0000
2023-05-15T02:01:05.428Z,0.0000
2023-05-15T02:02:07.011Z,0.0000
2023-05-15T02:03:08.306Z,157.9681
2023-05-15T02:08:14.784Z,64.8148
2023-05-15T02:09:16.518Z,64.8077
2023-05-15T02:10:17.698Z,64.7308
2023-05-15T02:11:18.865Z,0.0000
2023-05-15T02:22:29.446Z,0.0000
2023-05-15T02:23:29.639Z,0.0000
2023-05-15T02:24:30.795Z,0.0000
2023-05-15T02:26:33.163Z,0.0000
2023-05-15T02:27:35.268Z,0.0000
2023-05-15T02:28:35.939Z,0.0000
2023-05-15T02:29:37.337Z,0.0000
2023-05-15T02:30:37.138Z,0.0000
2023-05-15T02:33:41.913Z,0.0000
2023-05-15T02:34:43.849Z,0.0000
2023-05-15T02:36:46.218Z,67.0000
2023-05-15T02:37:46.676Z,0.0000
2023-05-15T02:38:46.641Z,0.0000
2023-05-15T02:50:01.840Z,0.0000
2023-05-15T02:56:07.847Z,150.0004
2023-05-15T02:57:09.727Z,150.2404
2023-05-15T02:58:10.517Z,150.4235
2023-05-15T02:59:11.147Z,153.7697
2023-05-15T03:00:11.767Z,154.4588
2023-05-15T03:01:12.490Z,154.6543
2023-05-15T03:04:17.323Z,155.0389
2023-05-15T03:05:18.622Z,155.1254
2023-05-15T03:07:22.665Z,0.0000
2023-05-15T03:08:25.495Z,0.0000
2023-05-15T03:12:28.762Z,0.0000
2023-05-15T03:20:35.811Z,0.0000
2023-05-15T03:21:36.700Z,0.0000
2023-05-15T03:22:38.431Z,160.7088
2023-05-15T03:35:28.706Z,175.0004
2023-05-15T03:36:30.154Z,174.7921
2023-05-15T03:37:31.242Z,0.0000
2023-05-15T03:38:32.712Z,0.0000
2023-05-15T03:39:32.932Z,0.0000
2023-05-15T03:40:35.445Z,174.8153
2023-05-15T03:41:36.594Z,0.0000
2023-05-15T03:42:38.607Z,0.0000
2023-05-15T03:43:38.402Z,0.0000
2023-05-15T03:47:43.891Z,0.0000
2023-05-15T03:48:43.845Z,0.0000
2023-05-15T03:49:45.714Z,0.0000
2023-05-15T03:50:46.886Z,0.0000
2023-05-15T03:51:48.405Z,0.0000
2023-05-15T03:52:49.547Z,0.0000
2023-05-15T03:53:51.104Z,174.9588
2023-05-15T03:54:52.547Z,174.8754
2023-05-15T03:55:52.921Z,0.0000
2023-05-15T03:56:54.311Z,0.0000
2023-05-15T03:57:56.054Z,174.8893
2023-05-15T03:58:56.904Z,174.8081
2023-05-15T03:59:58.838Z,0.0000
2023-05-15T04:00:59.866Z,0.0000
2023-05-15T04:03:03.521Z,175.0913
2023-05-15T04:11:11.818Z,0.0000
2023-05-15T04:12:12.573Z,0.0000
2023-05-15T04:14:13.844Z,0.0000
2023-05-15T04:15:14.127Z,0.0000
2023-05-15T04:16:15.410Z,0.0000
2023-05-15T04:17:16.424Z,0.0000
2023-05-15T04:18:17.862Z,0.0000
2023-05-15T04:19:18.067Z,0.0000
2023-05-15T04:21:19.480Z,218.3204
2023-05-15T04:39:38.867Z,217.8338
2023-05-15T04:40:40.969Z,217.3338
2023-05-15T04:41:41.572Z,217.8081
2023-05-15T04:43:46.495Z,212.4619
2023-05-15T04:54:56.818Z,211.8576
2023-05-15T04:55:56.965Z,211.7831
2023-05-15T05:02:03.317Z,210.0804
2023-05-15T05:03:03.622Z,197.9024
2023-05-15T05:04:05.682Z,203.3730
2023-05-15T05:05:07.777Z,208.1254
2023-05-15T05:06:07.891Z,191.7342
2023-05-15T05:07:09.504Z,204.4278
2023-05-15T05:08:11.713Z,206.4541
2023-05-15T05:18:22.034Z,223.2519
2023-05-15T05:19:22.267Z,206.2311
2023-05-15T05:20:24.533Z,212.2497
2023-05-15T05:21:24.923Z,214.6092
2023-05-15T05:33:39.666Z,220.9490
2023-05-15T05:34:39.727Z,229.3989
2023-05-15T05:35:40.833Z,221.8876
2023-05-15T05:36:42.739Z,208.2963
2023-05-15T05:37:43.519Z,212.0875
2023-05-15T05:38:45.471Z,238.6721
2023-05-15T05:39:46.238Z,245.0398
2023-05-15T05:40:48.304Z,235.1672
2023-05-15T05:41:50.577Z,230.2914
2023-05-15T05:44:54.515Z,211.4804
2023-05-15T05:45:55.994Z,213.5993
2023-05-15T05:49:02.891Z,221.1433
2023-05-15T05:50:03.986Z,228.6582
2023-05-15T05:51:04.011Z,222.3519
2023-05-15T05:53:06.635Z,216.0387
2023-05-15T05:54:07.198Z,216.3345
2023-05-15T05:55:07.289Z,227.3532
2023-05-15T05:56:07.413Z,230.2697
2023-05-15T05:57:10.267Z,211.0631
2023-05-15T06:08:19.981Z,219.6823
2023-05-15T06:09:20.238Z,0.0000
2023-05-15T06:10:22.512Z,219.8081
2023-05-15T06:11:25.909Z,223.5005
2023-05-15T06:12:25.347Z,225.0439
2023-05-15T06:13:26.953Z,226.0004
2023-05-15T06:14:28.259Z,223.7234
2023-05-15T06:15:28.859Z,202.0873
2023-05-15T06:16:29.389Z,0.0000
2023-05-15T06:17:31.429Z,203.9171
2023-05-15T06:18:31.868Z,202.0078
2023-05-15T06:19:34.073Z,200.1655
2023-05-15T06:21:38.410Z,214.7688
2023-05-15T06:36:59.878Z,227.5120
2023-05-15T06:40:58.856Z,0.0000
2023-05-15T06:41:59.299Z,231.1896
2023-05-15T06:42:59.508Z,237.0389
2023-05-15T06:45:13.289Z,236.7782
2023-05-15T06:51:34.602Z,236.7929
2023-05-15T06:52:34.624Z,236.7899
2023-05-15T06:53:35.179Z,236.5794
2023-05-15T06:54:35.541Z,236.5853
2023-05-15T07:09:16.274Z,233.3199
2023-05-15T07:10:17.450Z,230.7205
2023-05-15T07:11:20.376Z,227.7088
2023-05-15T07:15:21.379Z,221.4213
2023-05-15T07:25:30.648Z,220.7921
2023-05-15T07:26:46.605Z,218.2321
2023-05-15T07:28:32.374Z,218.4235
2023-05-15T07:29:34.293Z,198.5310
2023-05-15T07:30:36.070Z,200.2597
2023-05-15T07:32:38.757Z,0.0000
2023-05-15T07:33:40.330Z,209.1426
2023-05-15T07:34:41.090Z,221.4004
2023-05-15T07:35:41.301Z,0.0000
2023-05-15T07:45:51.014Z,0.0000
2023-05-15T07:46:52.148Z,0.0000
2023-05-15T07:47:53.985Z,0.0000
2023-05-15T07:55:00.085Z,0.0000
2023-05-15T08:14:22.757Z,247.4588
2023-05-15T08:15:24.166Z,246.7396
2023-05-15T08:20:28.918Z,204.2697
2023-05-15T08:21:29.703Z,207.0386
2023-05-15T08:22:29.942Z,211.6542
2023-05-15T08:23:31.269Z,213.4004
2023-05-15T08:35:43.935Z,217.4787
2023-05-15T08:36:45.470Z,216.9134
2023-05-15T08:38:46.906Z,0.0000
2023-05-15T08:45:51.015Z,191.4798
2023-05-15T08:46:51.689Z,204.8703
2023-05-15T08:52:56.962Z,209.4404
2023-05-15T08:53:57.514Z,209.5222
2023-05-15T08:54:59.181Z,210.1743
2023-05-15T08:55:59.699Z,209.9235
2023-05-15T08:58:01.138Z,178.4254
2023-05-15T09:00:04.784Z,171.1159
2023-05-15T09:01:04.272Z,182.0869
2023-05-15T09:03:07.601Z,178.9464
2023-05-15T09:04:07.838Z,196.0438
2023-05-15T09:06:10.915Z,192.1075
2023-05-15T09:07:12.795Z,201.7095
2023-05-15T09:08:14.412Z,204.9254
2023-05-15T09:09:16.138Z,196.3813
2023-05-15T09:11:18.744Z,196.3191
2023-05-15T09:27:11.630Z,0.0000
2023-05-15T09:28:12.546Z,0.0000
2023-05-15T09:30:14.816Z,0.0000
2023-05-15T09:31:15.157Z,0.0000
2023-05-15T09:33:18.410Z,0.0000
2023-05-15T09:34:19.081Z,197.1254
2023-05-15T09:35:23.785Z,193.5004
2023-05-15T09:36:22.487Z,0.0000
2023-05-15T09:37:23.635Z,0.0000
2023-05-15T09:39:25.456Z,0.0000
2023-05-15T09:42:27.904Z,0.0000
2023-05-15T09:45:31.811Z,197.1833
2023-05-15T09:49:34.713Z,206.2178
2023-05-15T09:58:40.962Z,46.3333
2023-05-15T10:08:49.972Z,181.8735
2023-05-15T10:09:51.696Z,191.8073
2023-05-15T10:46:39.131Z,159.8486
2023-05-15T10:47:39.495Z,167.7312
2023-05-15T10:48:41.198Z,159.2104
2023-05-15T11:06:25.940Z,147.8265
2023-05-15T11:08:27.307Z,153.5203
2023-05-15T11:28:23.650Z,161.9009
2023-05-15T11:29:24.583Z,188.8947
2023-05-15T11:30:27.722Z,176.9167
2023-05-15T11:31:28.493Z,196.0354
2023-05-15T11:32:29.814Z,161.0893
2023-05-15T11:33:30.760Z,160.8138
2023-05-15T11:34:30.850Z,163.7494
2023-05-15T11:37:06.393Z,186.7422
2023-05-15T11:43:02.742Z,130.0174
2023-05-15T11:50:44.502Z,143.9644
2023-05-15T13:12:24.835Z,152.1254
2023-05-15T13:26:46.875Z,147.2309
2023-05-15T13:28:48.624Z,187.7243
2023-05-15T13:29:49.810Z,212.0609
2023-05-15T13:30:50.415Z,183.2199
2023-05-15T13:42:47.025Z,186.1615
2023-05-15T13:43:47.061Z,191.0874
2023-05-15T13:44:47.762Z,197.8624
2023-05-15T13:45:48.173Z,221.0735
2023-05-15T13:46:50.200Z,288.9228
2023-05-15T13:47:51.153Z,221.5388
2023-05-15T13:48:51.321Z,232.8178
2023-05-15T13:49:53.432Z,213.9550
2023-05-15T13:51:54.475Z,202.2111
2023-05-15T13:52:56.502Z,164.1683
2023-05-15T13:54:00.130Z,155.7312
2023-05-15T14:16:59.528Z,32.3014
2023-05-15T14:18:02.114Z,339.3439
2023-05-15T14:24:06.114Z,327.0815
2023-05-15T14:34:06.661Z,319.4706
2023-05-15T14:36:08.314Z,22.7558
2023-05-15T14:50:24.516Z,0.0000
2023-05-15T14:51:26.642Z,0.0000
2023-05-15T14:52:27.015Z,0.0000
2023-05-15T14:54:29.674Z,0.0000
2023-05-15T14:55:32.345Z,0.0000
2023-05-15T14:56:32.664Z,0.0000
2023-05-15T14:58:35.407Z,0.0000
2023-05-15T14:59:35.841Z,0.0000
2023-05-15T15:01:38.408Z,0.0000
2023-05-15T15:03:40.879Z,0.0000
2023-05-15T15:04:41.294Z,0.0000
2023-05-15T15:22:00.711Z,99.4235
2023-05-15T15:23:03.203Z,104.3084
2023-05-15T15:24:04.946Z,106.8700
2023-05-15T15:25:05.975Z,106.7830
2023-05-15T15:27:06.900Z,196.4386
2023-05-15T15:38:55.494Z,229.0004
2023-05-15T15:39:55.472Z,229.9619
2023-05-15T15:40:55.562Z,229.6091
2023-05-15T15:45:59.795Z,229.0389
2023-05-15T15:48:02.424Z,223.3195
2023-05-15T15:59:28.632Z,218.2174
2023-05-15T16:00:28.439Z,229.6073
2023-05-15T16:13:41.601Z,238.1239
2023-05-15T16:14:42.331Z,242.9869
2023-05-15T16:15:43.992Z,225.6579
2023-05-15T16:16:45.222Z,235.0363
2023-05-15T16:25:35.366Z,227.3891
2023-05-15T16:26:36.688Z,227.5970
2023-05-15T16:27:38.104Z,230.7775
2023-05-15T16:28:37.636Z,223.8569
2023-05-15T16:29:39.354Z,226.7513
2023-05-15T16:30:49.394Z,218.8948
2023-05-15T16:35:17.027Z,254.8207
2023-05-15T16:36:17.677Z,236.3123
2023-05-15T16:37:19.400Z,234.8147
2023-05-15T16:38:21.114Z,231.8638
2023-05-15T16:39:23.374Z,232.9217
2023-05-15T16:57:37.886Z,233.4522
2023-05-15T16:58:39.102Z,251.8635
2023-05-15T16:59:39.591Z,239.5157
2023-05-15T17:00:42.295Z,231.2097
2023-05-15T17:01:43.609Z,230.8375
2023-05-15T17:02:44.714Z,234.3958
2023-05-15T17:04:46.969Z,243.3717
2023-05-15T17:05:48.300Z,228.7866
2023-05-15T17:07:49.466Z,214.8465
2023-05-15T17:08:49.718Z,222.0297
2023-05-15T17:11:56.758Z,238.4753
2023-05-15T17:28:16.008Z,266.9234
2023-05-15T17:39:28.601Z,218.3080
2023-05-15T17:40:30.107Z,220.8081
2023-05-15T17:41:31.960Z,220.5838
2023-05-15T17:42:33.649Z,220.4235
2023-05-15T17:43:34.077Z,217.8116
2023-05-15T17:44:33.946Z,223.2613
2023-05-15T17:45:35.986Z,229.6673
2023-05-15T17:46:37.167Z,230.4003
2023-05-15T17:47:50.166Z,231.2697
2023-05-15T17:49:10.230Z,232.5828
2023-05-15T17:50:10.873Z,232.2088
2023-05-15T17:51:12.294Z,236.3119
2023-05-15T17:52:19.642Z,280.4816
2023-05-15T17:53:14.740Z,274.3241
2023-05-15T17:54:16.574Z,255.7302
2023-05-15T17:55:18.091Z,0.0000
2023-05-15T17:56:18.667Z,258.7844
2023-05-15T17:57:20.101Z,228.0497
2023-05-15T17:58:20.566Z,237.7485
2023-05-15T18:10:31.525Z,257.3188
2023-05-15T18:11:32.099Z,0.0000
2023-05-15T18:12:32.533Z,0.0000
2023-05-15T18:13:33.175Z,0.0000
2023-05-15T18:14:33.655Z,261.0939
2023-05-15T18:15:34.794Z,267.6091
2023-05-15T18:17:37.130Z,221.0442
2023-05-15T18:18:37.334Z,222.3857
2023-05-15T18:19:37.663Z,225.3851
2023-05-15T18:30:21.014Z,221.2086
2023-05-15T18:31:23.796Z,220.9235
2023-05-15T18:32:23.973Z,0.0000
2023-05-15T18:33:24.017Z,0.0000
2023-05-15T18:34:25.572Z,218.1239
2023-05-15T18:35:28.177Z,206.7930
2023-05-15T18:36:28.117Z,201.5004
2023-05-15T18:37:28.744Z,0.0000
2023-05-15T18:38:29.345Z,202.0421
2023-05-15T18:39:30.816Z,202.6671
2023-05-15T18:40:32.312Z,201.5004
2023-05-15T18:41:34.658Z,200.4349
2023-05-15T18:42:35.035Z,204.2400
2023-05-15T18:43:37.186Z,202.6671
2023-05-15T18:44:38.826Z,202.7921
2023-05-15T18:45:39.143Z,203.3048
2023-05-15T18:46:40.613Z,203.6404
2023-05-15T18:47:41.744Z,204.0404
2023-05-15T18:48:42.326Z,203.7396
2023-05-15T18:49:42.502Z,203.4787
2023-05-15T18:50:44.254Z,203.6671
2023-05-15T18:51:45.639Z,191.5419
2023-05-15T18:52:47.348Z,196.0773
2023-05-15T18:53:47.760Z,0.0000
2023-05-15T18:54:49.749Z,0.0000
2023-05-15T18:59:25.060Z,0.0000
2023-05-15T19:00:38.152Z,0.0000
2023-05-15T19:06:01.458Z,0.0000
2023-05-15T19:07:03.424Z,0.0000
2023-05-15T19:09:06.134Z,204.5732
2023-05-15T19:10:08.468Z,285.7052
2023-05-15T19:11:09.042Z,331.7092
2023-05-15T19:12:09.768Z,329.0008
2023-05-15T19:13:09.869Z,0.0000
2023-05-15T19:14:10.999Z,0.0000
2023-05-15T19:15:11.931Z,312.6248
2023-05-15T19:17:14.637Z,290.9142
2023-05-15T19:18:15.598Z,274.1748
2023-05-15T19:19:16.574Z,275.4238
2023-05-15T19:21:17.848Z,280.6530
2023-05-15T19:22:17.728Z,0.0000
2023-05-15T19:36:35.758Z,280.0508
2023-05-15T19:37:35.831Z,280.0778
2023-05-15T19:38:37.595Z,280.0842
2023-05-15T19:39:39.379Z,280.1675
2023-05-15T19:40:41.410Z,279.9175
2023-05-15T19:41:49.114Z,280.1747
2023-05-15T19:49:23.470Z,0.0000
2023-05-15T20:01:37.839Z,0.0000
2023-05-15T20:12:53.025Z,0.0000
2023-05-15T20:13:53.189Z,0.0000
2023-05-15T20:14:55.086Z,0.0000
2023-05-15T20:15:56.699Z,0.0000
2023-05-15T20:16:58.139Z,0.0000
2023-05-15T20:17:58.061Z,0.0000
2023-05-15T20:35:24.005Z,0.0000
2023-05-15T20:36:24.396Z,0.0000
2023-05-15T20:37:25.444Z,0.0000
2023-05-15T20:38:27.313Z,0.0000
2023-05-15T20:39:27.376Z,0.0000
2023-05-15T20:40:29.207Z,0.0000
2023-05-15T20:42:31.996Z,0.0000
2023-05-15T20:43:32.520Z,0.0000
2023-05-15T20:44:33.297Z,0.0000
2023-05-15T20:45:35.842Z,0.0000
2023-05-15T20:46:36.410Z,0.0000
2023-05-15T20:47:37.637Z,0.0000
2023-05-15T20:48:39.895Z,0.0000
2023-05-15T20:49:40.070Z,0.0000
2023-05-15T20:50:40.199Z,0.0000
2023-05-15T20:51:41.468Z,0.0000
2023-05-15T20:52:41.980Z,0.0000
2023-05-15T20:53:42.576Z,0.0000
2023-05-15T20:55:46.317Z,0.0000
2023-05-15T20:58:47.458Z,0.0000
2023-05-15T21:00:49.079Z,0.0000
2023-05-15T21:01:49.175Z,0.0000
2023-05-15T21:06:51.358Z,0.0000
2023-05-15T21:07:52.951Z,0.0000
2023-05-15T21:08:54.139Z,0.0000
2023-05-15T21:09:55.028Z,0.0000
2023-05-15T21:10:57.032Z,0.0000
2023-05-15T21:11:57.136Z,0.0000
2023-05-15T21:12:59.866Z,0.0000
2023-05-15T21:13:59.740Z,0.0000
2023-05-15T21:18:05.011Z,0.0000
2023-05-15T21:19:06.435Z,0.0000
2023-05-15T21:20:09.012Z,0.0000
2023-05-15T21:21:09.189Z,0.0000
2023-05-15T21:22:10.892Z,0.0000
2023-05-15T21:24:12.359Z,0.0000
2023-05-15T21:25:13.804Z,0.0000
2023-05-15T21:40:31.756Z,0.0000
2023-05-15T21:41:33.201Z,0.0000
2023-05-15T21:42:35.742Z,0.0000
2023-05-15T21:43:36.523Z,0.0000
2023-05-15T21:44:36.716Z,0.0000
2023-05-15T21:45:37.900Z,0.0000
2023-05-15T21:46:37.986Z,0.0000
2023-05-15T21:47:38.616Z,0.0000
2023-05-15T21:50:42.449Z,0.0000
2023-05-15T21:51:44.470Z,0.0000
2023-05-15T21:53:47.807Z,0.0000
2023-05-15T21:54:48.120Z,0.0000
2023-05-15T21:55:49.365Z,0.0000
2023-05-15T21:57:52.350Z,0.0000
2023-05-15T21:58:52.589Z,0.0000
2023-05-15T22:00:55.351Z,0.0000
2023-05-15T22:01:56.696Z,0.0000
2023-05-15T22:02:57.730Z,0.0000
2023-05-15T22:04:00.200Z,0.0000
2023-05-15T22:05:01.437Z,0.0000
2023-05-15T22:06:02.781Z,0.0000
2023-05-15T22:07:03.955Z,0.0000
2023-05-15T22:08:06.032Z,0.0000
2023-05-15T22:09:07.394Z,0.0000
2023-05-15T22:10:09.139Z,0.0000
2023-05-15T22:13:14.590Z,0.0000
2023-05-15T22:14:15.202Z,0.0000
2023-05-15T22:15:17.689Z,0.0000
2023-05-15T22:16:20.108Z,0.0000
2023-05-15T22:19:32.994Z,0.0000
2023-05-15T22:23:25.804Z,0.0000
2023-05-15T22:24:26.893Z,0.0000
2023-05-15T22:34:03.107Z,0.0000
2023-05-15T22:46:15.505Z,0.0000
2023-05-15T22:47:15.855Z,0.0000
2023-05-15T22:49:18.295Z,0.0000
2023-05-15T22:50:20.525Z,0.0000
2023-05-15T22:51:20.565Z,0.0000
2023-05-15T22:52:21.672Z,0.0000
2023-05-15T22:53:24.164Z,0.0000
2023-05-15T22:54:24.856Z,0.0000
2023-05-15T22:55:25.367Z,0.0000
2023-05-15T23:12:42.546Z,0.0000
2023-05-15T23:13:44.782Z,0.0000
2023-05-15T23:14:46.261Z,0.0000
2023-05-15T23:16:48.905Z,0.0000
2023-05-15T23:17:50.505Z,0.0000
2023-05-15T23:18:51.416Z,0.0000
2023-05-15T23:20:54.297Z,0.0000
2023-05-15T23:30:05.382Z,0.0000
2023-05-15T23:31:06.201Z,0.0000
2023-05-15T23:34:09.882Z,0.0000
2023-05-15T23:35:11.420Z,280.2808
2023-05-15T23:36:13.784Z,0.0000
2023-05-15T23:54:35.337Z,0.0000
2023-05-15T23:55:37.423Z,0.0000
2023-05-15T23:56:38.822Z,0.0000
2023-05-15T23:57:40.285Z,0.0000
2023-05-15T23:59:45.575Z,0.0000
